sensor_id;sensor_type;location;lat;lon;timestamp;P1;durP1;ratioP1;P2;durP2;ratioP2
78985;SDS011;68384;55.750;48.746;2023-12-20T00:00:14;3.45;;;0.93;;
78985;SDS011;68384;55.750;48.746;2023-12-20T00:01:17;3.15;;;0.85;;
78985;SDS011;68384;55.750;48.746;2023-12-20T00:02:19;1.70;;;0.98;;
78985;SDS011;68384;55.750;48.746;2023-12-20T00:03:21;1.52;;;0.70;;
78985;SDS011;68384;55.750;48.746;2023-12-20T00:04:23;1.50;;;0.80;;
78985;SDS011;68384;55.750;48.746;2023-12-20T00:05:26;2.28;;;0.68;;
78985;SDS011;68384;55.750;48.746;2023-12-20T00:06:28;5.22;;;0.80;;
78985;SDS011;68384;55.750;48.746;2023-12-20T00:07:31;1.70;;;0.75;;
78985;SDS011;68384;55.750;48.746;2023-12-20T00:08:34;1.60;;;0.52;;
78985;SDS011;68384;55.750;48.746;2023-12-20T00:09:36;1.65;;;1.10;;
78985;SDS011;68384;55.750;48.746;2023-12-20T00:10:38;1.60;;;0.80;;
78985;SDS011;68384;55.750;48.746;2023-12-20T00:11:40;1.70;;;0.55;;
78985;SDS011;68384;55.750;48.746;2023-12-20T00:12:43;2.65;;;0.80;;
78985;SDS011;68384;55.750;48.746;2023-12-20T00:13:46;1.85;;;0.50;;
78985;SDS011;68384;55.750;48.746;2023-12-20T00:14:52;1.80;;;0.75;;
78985;SDS011;68384;55.750;48.746;2023-12-20T00:15:54;1.60;;;0.70;;
78985;SDS011;68384;55.750;48.746;2023-12-20T00:16:56;1.80;;;0.82;;
78985;SDS011;68384;55.750;48.746;2023-12-20T00:17:58;1.52;;;0.80;;
78985;SDS011;68384;55.750;48.746;2023-12-20T00:19:01;1.63;;;0.82;;
78985;SDS011;68384;55.750;48.746;2023-12-20T00:20:04;1.73;;;1.00;;
78985;SDS011;68384;55.750;48.746;2023-12-20T00:21:07;1.80;;;0.85;;
78985;SDS011;68384;55.750;48.746;2023-12-20T00:22:09;1.65;;;0.60;;
78985;SDS011;68384;55.750;48.746;2023-12-20T00:23:11;1.60;;;0.65;;
78985;SDS011;68384;55.750;48.746;2023-12-20T00:24:13;1.80;;;0.90;;
78985;SDS011;68384;55.750;48.746;2023-12-20T00:25:16;1.65;;;0.77;;
78985;SDS011;68384;55.750;48.746;2023-12-20T00:26:19;2.40;;;0.70;;
78985;SDS011;68384;55.750;48.746;2023-12-20T00:27:21;1.58;;;0.82;;
78985;SDS011;68384;55.750;48.746;2023-12-20T00:28:25;1.70;;;0.80;;
78985;SDS011;68384;55.750;48.746;2023-12-20T00:29:27;1.65;;;0.90;;
78985;SDS011;68384;55.750;48.746;2023-12-20T00:30:30;1.70;;;0.90;;
78985;SDS011;68384;55.750;48.746;2023-12-20T00:31:32;1.60;;;0.98;;
78985;SDS011;68384;55.750;48.746;2023-12-20T00:32:35;1.63;;;0.80;;
78985;SDS011;68384;55.750;48.746;2023-12-20T00:33:37;1.60;;;0.70;;
78985;SDS011;68384;55.750;48.746;2023-12-20T00:34:41;2.25;;;1.40;;
78985;SDS011;68384;55.750;48.746;2023-12-20T00:35:44;1.92;;;1.00;;
78985;SDS011;68384;55.750;48.746;2023-12-20T00:36:46;1.70;;;0.90;;
78985;SDS011;68384;55.750;48.746;2023-12-20T00:37:49;1.75;;;0.80;;
78985;SDS011;68384;55.750;48.746;2023-12-20T00:38:51;1.65;;;0.93;;
78985;SDS011;68384;55.750;48.746;2023-12-20T00:39:53;1.98;;;0.93;;
78985;SDS011;68384;55.750;48.746;2023-12-20T00:40:56;1.95;;;1.00;;
78985;SDS011;68384;55.750;48.746;2023-12-20T00:41:58;1.67;;;0.77;;
78985;SDS011;68384;55.750;48.746;2023-12-20T00:43:00;1.83;;;0.70;;
78985;SDS011;68384;55.750;48.746;2023-12-20T00:44:02;1.80;;;0.90;;
78985;SDS011;68384;55.750;48.746;2023-12-20T00:45:05;1.80;;;0.82;;
78985;SDS011;68384;55.750;48.746;2023-12-20T00:46:07;1.70;;;1.00;;
78985;SDS011;68384;55.750;48.746;2023-12-20T00:47:10;1.70;;;0.90;;
78985;SDS011;68384;55.750;48.746;2023-12-20T00:48:12;1.70;;;0.82;;
78985;SDS011;68384;55.750;48.746;2023-12-20T00:49:14;1.55;;;0.60;;
78985;SDS011;68384;55.750;48.746;2023-12-20T00:50:16;1.60;;;0.93;;
78985;SDS011;68384;55.750;48.746;2023-12-20T00:51:19;1.70;;;0.73;;
78985;SDS011;68384;55.750;48.746;2023-12-20T00:52:21;1.90;;;1.15;;
78985;SDS011;68384;55.750;48.746;2023-12-20T00:53:24;1.83;;;1.00;;
78985;SDS011;68384;55.750;48.746;2023-12-20T00:54:26;1.58;;;0.65;;
78985;SDS011;68384;55.750;48.746;2023-12-20T00:55:29;1.65;;;0.80;;
78985;SDS011;68384;55.750;48.746;2023-12-20T00:56:31;1.90;;;0.80;;
78985;SDS011;68384;55.750;48.746;2023-12-20T00:57:33;2.05;;;1.10;;
78985;SDS011;68384;55.750;48.746;2023-12-20T00:58:36;2.30;;;1.05;;
78985;SDS011;68384;55.750;48.746;2023-12-20T00:59:38;1.88;;;0.82;;
78985;SDS011;68384;55.750;48.746;2023-12-20T01:00:40;2.15;;;1.00;;
78985;SDS011;68384;55.750;48.746;2023-12-20T01:01:45;3.00;;;1.08;;
78985;SDS011;68384;55.750;48.746;2023-12-20T01:02:47;2.72;;;1.27;;
78985;SDS011;68384;55.750;48.746;2023-12-20T01:03:51;2.25;;;1.02;;
78985;SDS011;68384;55.750;48.746;2023-12-20T01:04:54;1.85;;;1.10;;
78985;SDS011;68384;55.750;48.746;2023-12-20T01:05:59;1.80;;;1.02;;
78985;SDS011;68384;55.750;48.746;2023-12-20T01:07:01;2.03;;;1.17;;
78985;SDS011;68384;55.750;48.746;2023-12-20T01:08:04;1.80;;;1.10;;
78985;SDS011;68384;55.750;48.746;2023-12-20T01:09:06;1.92;;;1.10;;
78985;SDS011;68384;55.750;48.746;2023-12-20T01:10:08;2.20;;;1.50;;
78985;SDS011;68384;55.750;48.746;2023-12-20T01:11:11;2.03;;;1.20;;
78985;SDS011;68384;55.750;48.746;2023-12-20T01:12:13;2.15;;;1.20;;
78985;SDS011;68384;55.750;48.746;2023-12-20T01:13:15;2.60;;;1.38;;
78985;SDS011;68384;55.750;48.746;2023-12-20T01:14:18;2.00;;;1.10;;
78985;SDS011;68384;55.750;48.746;2023-12-20T01:15:20;1.95;;;1.38;;
78985;SDS011;68384;55.750;48.746;2023-12-20T01:16:22;2.67;;;1.33;;
78985;SDS011;68384;55.750;48.746;2023-12-20T01:17:25;2.17;;;1.20;;
78985;SDS011;68384;55.750;48.746;2023-12-20T01:18:27;2.33;;;1.33;;
78985;SDS011;68384;55.750;48.746;2023-12-20T01:19:29;2.00;;;1.30;;
78985;SDS011;68384;55.750;48.746;2023-12-20T01:20:32;3.65;;;1.50;;
78985;SDS011;68384;55.750;48.746;2023-12-20T01:21:34;2.80;;;1.65;;
78985;SDS011;68384;55.750;48.746;2023-12-20T01:22:36;2.33;;;1.45;;
78985;SDS011;68384;55.750;48.746;2023-12-20T01:23:39;2.60;;;1.60;;
78985;SDS011;68384;55.750;48.746;2023-12-20T01:24:41;3.50;;;1.90;;
78985;SDS011;68384;55.750;48.746;2023-12-20T01:25:44;2.60;;;1.70;;
78985;SDS011;68384;55.750;48.746;2023-12-20T01:26:46;2.92;;;1.70;;
78985;SDS011;68384;55.750;48.746;2023-12-20T01:27:49;2.28;;;1.50;;
78985;SDS011;68384;55.750;48.746;2023-12-20T01:28:52;2.72;;;1.55;;
78985;SDS011;68384;55.750;48.746;2023-12-20T01:29:55;3.65;;;1.77;;
78985;SDS011;68384;55.750;48.746;2023-12-20T01:30:57;2.58;;;1.55;;
78985;SDS011;68384;55.750;48.746;2023-12-20T01:32:00;3.08;;;1.58;;
78985;SDS011;68384;55.750;48.746;2023-12-20T01:33:02;2.80;;;1.50;;
78985;SDS011;68384;55.750;48.746;2023-12-20T01:34:04;3.83;;;1.50;;
78985;SDS011;68384;55.750;48.746;2023-12-20T01:35:07;3.38;;;1.67;;
78985;SDS011;68384;55.750;48.746;2023-12-20T01:36:09;2.78;;;1.83;;
78985;SDS011;68384;55.750;48.746;2023-12-20T01:37:12;3.38;;;1.75;;
78985;SDS011;68384;55.750;48.746;2023-12-20T01:38:14;3.40;;;2.15;;
78985;SDS011;68384;55.750;48.746;2023-12-20T01:39:17;3.03;;;1.90;;
78985;SDS011;68384;55.750;48.746;2023-12-20T01:40:28;2.63;;;1.60;;
78985;SDS011;68384;55.750;48.746;2023-12-20T01:41:31;2.97;;;1.80;;
78985;SDS011;68384;55.750;48.746;2023-12-20T01:42:33;6.68;;;2.10;;
78985;SDS011;68384;55.750;48.746;2023-12-20T01:43:35;4.93;;;1.90;;
78985;SDS011;68384;55.750;48.746;2023-12-20T01:44:51;4.00;;;1.63;;
78985;SDS011;68384;55.750;48.746;2023-12-20T01:45:53;5.75;;;2.00;;
78985;SDS011;68384;55.750;48.746;2023-12-20T01:46:58;3.72;;;1.92;;
78985;SDS011;68384;55.750;48.746;2023-12-20T01:48:02;9.10;;;2.30;;
78985;SDS011;68384;55.750;48.746;2023-12-20T01:49:07;17.67;;;2.92;;
78985;SDS011;68384;55.750;48.746;2023-12-20T01:50:10;4.85;;;1.65;;
78985;SDS011;68384;55.750;48.746;2023-12-20T01:51:12;4.50;;;2.25;;
78985;SDS011;68384;55.750;48.746;2023-12-20T01:52:14;18.23;;;3.42;;
78985;SDS011;68384;55.750;48.746;2023-12-20T01:53:17;16.67;;;2.65;;
78985;SDS011;68384;55.750;48.746;2023-12-20T01:54:22;10.68;;;2.58;;
78985;SDS011;68384;55.750;48.746;2023-12-20T01:55:30;15.45;;;2.78;;
78985;SDS011;68384;55.750;48.746;2023-12-20T01:56:35;34.95;;;5.35;;
78985;SDS011;68384;55.750;48.746;2023-12-20T01:57:37;18.40;;;3.25;;
78985;SDS011;68384;55.750;48.746;2023-12-20T01:58:45;7.40;;;2.63;;
78985;SDS011;68384;55.750;48.746;2023-12-20T01:59:48;15.75;;;3.78;;
78985;SDS011;68384;55.750;48.746;2023-12-20T02:00:51;24.92;;;4.85;;
78985;SDS011;68384;55.750;48.746;2023-12-20T02:01:53;21.40;;;3.05;;
78985;SDS011;68384;55.750;48.746;2023-12-20T02:02:56;21.23;;;3.80;;
78985;SDS011;68384;55.750;48.746;2023-12-20T02:04:03;14.38;;;2.25;;
78985;SDS011;68384;55.750;48.746;2023-12-20T02:05:06;12.35;;;2.40;;
78985;SDS011;68384;55.750;48.746;2023-12-20T02:06:09;30.85;;;3.72;;
78985;SDS011;68384;55.750;48.746;2023-12-20T02:07:12;22.92;;;3.00;;
78985;SDS011;68384;55.750;48.746;2023-12-20T02:08:14;24.65;;;2.75;;
78985;SDS011;68384;55.750;48.746;2023-12-20T02:09:17;20.63;;;2.88;;
78985;SDS011;68384;55.750;48.746;2023-12-20T02:10:20;18.92;;;4.25;;
78985;SDS011;68384;55.750;48.746;2023-12-20T02:11:22;25.75;;;4.13;;
78985;SDS011;68384;55.750;48.746;2023-12-20T02:12:24;25.50;;;3.33;;
78985;SDS011;68384;55.750;48.746;2023-12-20T02:13:27;29.33;;;4.68;;
78985;SDS011;68384;55.750;48.746;2023-12-20T02:14:29;54.92;;;4.22;;
78985;SDS011;68384;55.750;48.746;2023-12-20T02:15:31;33.20;;;3.72;;
78985;SDS011;68384;55.750;48.746;2023-12-20T02:16:33;36.92;;;4.28;;
78985;SDS011;68384;55.750;48.746;2023-12-20T02:17:36;57.15;;;4.75;;
78985;SDS011;68384;55.750;48.746;2023-12-20T02:18:40;54.25;;;5.90;;
78985;SDS011;68384;55.750;48.746;2023-12-20T02:19:44;28.55;;;3.67;;
78985;SDS011;68384;55.750;48.746;2023-12-20T02:20:47;50.05;;;5.70;;
78985;SDS011;68384;55.750;48.746;2023-12-20T02:21:49;18.13;;;3.25;;
78985;SDS011;68384;55.750;48.746;2023-12-20T02:22:52;64.60;;;6.97;;
78985;SDS011;68384;55.750;48.746;2023-12-20T02:23:54;45.38;;;5.45;;
78985;SDS011;68384;55.750;48.746;2023-12-20T02:24:56;37.28;;;4.50;;
78985;SDS011;68384;55.750;48.746;2023-12-20T02:25:59;17.65;;;3.80;;
78985;SDS011;68384;55.750;48.746;2023-12-20T02:27:01;28.00;;;4.40;;
78985;SDS011;68384;55.750;48.746;2023-12-20T02:28:03;66.85;;;4.82;;
78985;SDS011;68384;55.750;48.746;2023-12-20T02:29:07;50.13;;;4.93;;
78985;SDS011;68384;55.750;48.746;2023-12-20T02:30:10;87.38;;;6.82;;
78985;SDS011;68384;55.750;48.746;2023-12-20T02:31:13;61.50;;;5.93;;
78985;SDS011;68384;55.750;48.746;2023-12-20T02:32:15;31.02;;;4.43;;
78985;SDS011;68384;55.750;48.746;2023-12-20T02:34:20;34.88;;;3.47;;
78985;SDS011;68384;55.750;48.746;2023-12-20T02:35:23;72.35;;;5.97;;
78985;SDS011;68384;55.750;48.746;2023-12-20T02:36:25;60.40;;;7.90;;
78985;SDS011;68384;55.750;48.746;2023-12-20T02:37:27;47.90;;;6.13;;
78985;SDS011;68384;55.750;48.746;2023-12-20T02:38:30;39.85;;;5.65;;
78985;SDS011;68384;55.750;48.746;2023-12-20T02:39:33;73.43;;;7.70;;
78985;SDS011;68384;55.750;48.746;2023-12-20T02:40:35;47.70;;;4.28;;
78985;SDS011;68384;55.750;48.746;2023-12-20T02:41:37;59.00;;;6.30;;
78985;SDS011;68384;55.750;48.746;2023-12-20T02:42:39;78.15;;;6.03;;
78985;SDS011;68384;55.750;48.746;2023-12-20T02:43:42;54.35;;;5.50;;
78985;SDS011;68384;55.750;48.746;2023-12-20T02:44:44;48.88;;;6.32;;
78985;SDS011;68384;55.750;48.746;2023-12-20T02:45:46;63.85;;;7.78;;
78985;SDS011;68384;55.750;48.746;2023-12-20T02:46:48;57.75;;;5.97;;
78985;SDS011;68384;55.750;48.746;2023-12-20T02:47:51;42.80;;;6.45;;
78985;SDS011;68384;55.750;48.746;2023-12-20T02:48:53;45.50;;;7.40;;
78985;SDS011;68384;55.750;48.746;2023-12-20T02:49:55;27.42;;;3.88;;
78985;SDS011;68384;55.750;48.746;2023-12-20T02:50:58;52.47;;;5.30;;
78985;SDS011;68384;55.750;48.746;2023-12-20T02:52:01;51.30;;;5.63;;
78985;SDS011;68384;55.750;48.746;2023-12-20T02:53:03;10.40;;;3.72;;
78985;SDS011;68384;55.750;48.746;2023-12-20T02:54:05;22.08;;;5.15;;
78985;SDS011;68384;55.750;48.746;2023-12-20T02:55:08;53.30;;;5.68;;
78985;SDS011;68384;55.750;48.746;2023-12-20T02:56:10;25.25;;;4.40;;
78985;SDS011;68384;55.750;48.746;2023-12-20T02:57:12;51.28;;;4.40;;
78985;SDS011;68384;55.750;48.746;2023-12-20T02:58:14;25.00;;;4.00;;
78985;SDS011;68384;55.750;48.746;2023-12-20T02:59:17;22.70;;;3.50;;
78985;SDS011;68384;55.750;48.746;2023-12-20T03:00:19;47.42;;;4.40;;
78985;SDS011;68384;55.750;48.746;2023-12-20T03:01:21;17.92;;;3.30;;
78985;SDS011;68384;55.750;48.746;2023-12-20T03:02:23;58.10;;;5.97;;
78985;SDS011;68384;55.750;48.746;2023-12-20T03:03:26;32.03;;;4.05;;
78985;SDS011;68384;55.750;48.746;2023-12-20T03:04:28;23.52;;;3.83;;
78985;SDS011;68384;55.750;48.746;2023-12-20T03:05:30;66.95;;;5.45;;
78985;SDS011;68384;55.750;48.746;2023-12-20T03:06:33;57.47;;;5.57;;
78985;SDS011;68384;55.750;48.746;2023-12-20T03:07:36;56.17;;;6.40;;
78985;SDS011;68384;55.750;48.746;2023-12-20T03:08:39;66.35;;;7.93;;
78985;SDS011;68384;55.750;48.746;2023-12-20T03:09:42;37.15;;;5.50;;
78985;SDS011;68384;55.750;48.746;2023-12-20T03:11:04;57.20;;;6.40;;
78985;SDS011;68384;55.750;48.746;2023-12-20T03:12:07;31.92;;;4.43;;
78985;SDS011;68384;55.750;48.746;2023-12-20T03:13:09;74.13;;;6.25;;
78985;SDS011;68384;55.750;48.746;2023-12-20T03:14:11;66.13;;;8.60;;
78985;SDS011;68384;55.750;48.746;2023-12-20T03:15:13;62.67;;;7.05;;
78985;SDS011;68384;55.750;48.746;2023-12-20T03:16:16;55.67;;;4.45;;
78985;SDS011;68384;55.750;48.746;2023-12-20T03:17:19;52.72;;;5.15;;
78985;SDS011;68384;55.750;48.746;2023-12-20T03:18:22;43.15;;;4.60;;
78985;SDS011;68384;55.750;48.746;2023-12-20T03:19:24;8.52;;;2.60;;
78985;SDS011;68384;55.750;48.746;2023-12-20T03:20:26;69.47;;;6.65;;
78985;SDS011;68384;55.750;48.746;2023-12-20T03:21:28;43.50;;;5.85;;
78985;SDS011;68384;55.750;48.746;2023-12-20T03:22:31;26.52;;;3.47;;
78985;SDS011;68384;55.750;48.746;2023-12-20T03:23:33;59.20;;;4.97;;
78985;SDS011;68384;55.750;48.746;2023-12-20T03:24:35;66.30;;;5.63;;
78985;SDS011;68384;55.750;48.746;2023-12-20T03:25:38;85.00;;;7.15;;
78985;SDS011;68384;55.750;48.746;2023-12-20T03:26:40;51.33;;;6.72;;
78985;SDS011;68384;55.750;48.746;2023-12-20T03:27:42;31.50;;;5.50;;
78985;SDS011;68384;55.750;48.746;2023-12-20T03:28:45;47.42;;;4.47;;
78985;SDS011;68384;55.750;48.746;2023-12-20T03:29:47;52.00;;;8.05;;
78985;SDS011;68384;55.750;48.746;2023-12-20T03:30:49;27.73;;;3.70;;
78985;SDS011;68384;55.750;48.746;2023-12-20T03:31:52;20.85;;;3.03;;
78985;SDS011;68384;55.750;48.746;2023-12-20T03:32:54;30.95;;;4.75;;
78985;SDS011;68384;55.750;48.746;2023-12-20T03:33:57;11.30;;;2.90;;
78985;SDS011;68384;55.750;48.746;2023-12-20T03:34:59;30.98;;;3.80;;
78985;SDS011;68384;55.750;48.746;2023-12-20T03:36:02;9.15;;;2.75;;
78985;SDS011;68384;55.750;48.746;2023-12-20T03:37:04;16.98;;;3.10;;
78985;SDS011;68384;55.750;48.746;2023-12-20T03:38:07;20.40;;;4.32;;
78985;SDS011;68384;55.750;48.746;2023-12-20T03:39:09;17.13;;;3.25;;
78985;SDS011;68384;55.750;48.746;2023-12-20T03:40:12;23.08;;;3.33;;
78985;SDS011;68384;55.750;48.746;2023-12-20T03:41:14;5.95;;;2.60;;
78985;SDS011;68384;55.750;48.746;2023-12-20T03:42:16;15.88;;;2.97;;
78985;SDS011;68384;55.750;48.746;2023-12-20T03:43:18;13.43;;;3.00;;
78985;SDS011;68384;55.750;48.746;2023-12-20T03:44:21;11.30;;;3.10;;
78985;SDS011;68384;55.750;48.746;2023-12-20T03:45:23;16.60;;;3.88;;
78985;SDS011;68384;55.750;48.746;2023-12-20T03:46:25;7.13;;;2.90;;
78985;SDS011;68384;55.750;48.746;2023-12-20T03:47:28;11.90;;;2.72;;
78985;SDS011;68384;55.750;48.746;2023-12-20T03:48:30;5.55;;;2.50;;
78985;SDS011;68384;55.750;48.746;2023-12-20T03:49:33;6.18;;;2.63;;
78985;SDS011;68384;55.750;48.746;2023-12-20T03:50:35;31.65;;;4.13;;
78985;SDS011;68384;55.750;48.746;2023-12-20T03:51:37;17.23;;;3.58;;
78985;SDS011;68384;55.750;48.746;2023-12-20T03:52:40;18.83;;;3.65;;
78985;SDS011;68384;55.750;48.746;2023-12-20T03:53:42;15.55;;;3.30;;
78985;SDS011;68384;55.750;48.746;2023-12-20T03:54:44;11.48;;;3.03;;
78985;SDS011;68384;55.750;48.746;2023-12-20T03:55:47;5.65;;;2.65;;
78985;SDS011;68384;55.750;48.746;2023-12-20T03:56:49;11.60;;;3.20;;
78985;SDS011;68384;55.750;48.746;2023-12-20T03:57:52;7.75;;;2.85;;
78985;SDS011;68384;55.750;48.746;2023-12-20T03:58:54;5.28;;;2.50;;
78985;SDS011;68384;55.750;48.746;2023-12-20T03:59:56;8.15;;;2.67;;
78985;SDS011;68384;55.750;48.746;2023-12-20T04:00:58;5.20;;;2.72;;
78985;SDS011;68384;55.750;48.746;2023-12-20T04:02:01;8.07;;;3.40;;
78985;SDS011;68384;55.750;48.746;2023-12-20T04:03:03;6.35;;;2.60;;
78985;SDS011;68384;55.750;48.746;2023-12-20T04:04:06;10.25;;;2.95;;
78985;SDS011;68384;55.750;48.746;2023-12-20T04:05:08;5.70;;;2.60;;
78985;SDS011;68384;55.750;48.746;2023-12-20T04:06:16;4.88;;;2.90;;
78985;SDS011;68384;55.750;48.746;2023-12-20T04:07:19;5.35;;;2.78;;
78985;SDS011;68384;55.750;48.746;2023-12-20T04:08:21;6.20;;;2.58;;
78985;SDS011;68384;55.750;48.746;2023-12-20T04:09:23;5.50;;;2.55;;
78985;SDS011;68384;55.750;48.746;2023-12-20T04:10:26;4.30;;;2.30;;
78985;SDS011;68384;55.750;48.746;2023-12-20T04:11:28;4.25;;;2.25;;
78985;SDS011;68384;55.750;48.746;2023-12-20T04:12:30;4.88;;;2.45;;
78985;SDS011;68384;55.750;48.746;2023-12-20T04:13:35;5.68;;;2.35;;
78985;SDS011;68384;55.750;48.746;2023-12-20T04:14:37;4.47;;;2.47;;
78985;SDS011;68384;55.750;48.746;2023-12-20T04:15:39;4.57;;;2.60;;
78985;SDS011;68384;55.750;48.746;2023-12-20T04:16:42;6.05;;;2.88;;
78985;SDS011;68384;55.750;48.746;2023-12-20T04:17:48;4.22;;;2.47;;
78985;SDS011;68384;55.750;48.746;2023-12-20T04:18:51;4.85;;;2.25;;
78985;SDS011;68384;55.750;48.746;2023-12-20T04:19:53;6.45;;;2.85;;
78985;SDS011;68384;55.750;48.746;2023-12-20T04:20:56;4.28;;;2.22;;
78985;SDS011;68384;55.750;48.746;2023-12-20T04:21:58;4.80;;;2.58;;
78985;SDS011;68384;55.750;48.746;2023-12-20T04:23:00;5.43;;;2.75;;
78985;SDS011;68384;55.750;48.746;2023-12-20T04:24:02;4.65;;;2.40;;
78985;SDS011;68384;55.750;48.746;2023-12-20T04:25:05;4.60;;;2.63;;
78985;SDS011;68384;55.750;48.746;2023-12-20T04:26:07;4.38;;;2.30;;
78985;SDS011;68384;55.750;48.746;2023-12-20T04:27:09;4.30;;;2.30;;
78985;SDS011;68384;55.750;48.746;2023-12-20T04:28:12;4.72;;;2.13;;
78985;SDS011;68384;55.750;48.746;2023-12-20T04:29:14;4.28;;;2.30;;
78985;SDS011;68384;55.750;48.746;2023-12-20T04:30:18;4.40;;;2.40;;
78985;SDS011;68384;55.750;48.746;2023-12-20T04:31:21;4.15;;;2.03;;
78985;SDS011;68384;55.750;48.746;2023-12-20T04:32:23;4.53;;;2.50;;
78985;SDS011;68384;55.750;48.746;2023-12-20T04:33:25;3.72;;;2.15;;
78985;SDS011;68384;55.750;48.746;2023-12-20T04:34:27;4.70;;;2.20;;
78985;SDS011;68384;55.750;48.746;2023-12-20T04:35:30;4.57;;;2.42;;
78985;SDS011;68384;55.750;48.746;2023-12-20T04:36:32;3.72;;;2.15;;
78985;SDS011;68384;55.750;48.746;2023-12-20T04:37:34;4.82;;;2.40;;
78985;SDS011;68384;55.750;48.746;2023-12-20T04:38:36;6.85;;;2.30;;
78985;SDS011;68384;55.750;48.746;2023-12-20T04:39:39;7.30;;;2.80;;
78985;SDS011;68384;55.750;48.746;2023-12-20T04:40:42;4.50;;;2.50;;
78985;SDS011;68384;55.750;48.746;2023-12-20T04:41:44;4.55;;;2.63;;
78985;SDS011;68384;55.750;48.746;2023-12-20T04:42:49;4.95;;;2.47;;
78985;SDS011;68384;55.750;48.746;2023-12-20T04:43:51;7.07;;;2.67;;
78985;SDS011;68384;55.750;48.746;2023-12-20T04:44:53;7.53;;;2.90;;
78985;SDS011;68384;55.750;48.746;2023-12-20T04:45:56;4.43;;;2.50;;
78985;SDS011;68384;55.750;48.746;2023-12-20T04:46:58;4.72;;;3.45;;
78985;SDS011;68384;55.750;48.746;2023-12-20T04:48:01;4.93;;;1.88;;
78985;SDS011;68384;55.750;48.746;2023-12-20T04:49:03;3.97;;;2.45;;
78985;SDS011;68384;55.750;48.746;2023-12-20T04:50:06;4.18;;;2.30;;
78985;SDS011;68384;55.750;48.746;2023-12-20T04:51:09;5.57;;;2.63;;
78985;SDS011;68384;55.750;48.746;2023-12-20T04:52:11;4.20;;;2.58;;
78985;SDS011;68384;55.750;48.746;2023-12-20T04:53:13;4.75;;;2.13;;
78985;SDS011;68384;55.750;48.746;2023-12-20T04:54:15;5.55;;;2.58;;
78985;SDS011;68384;55.750;48.746;2023-12-20T04:55:17;4.93;;;2.70;;
78985;SDS011;68384;55.750;48.746;2023-12-20T04:56:20;3.70;;;2.17;;
78985;SDS011;68384;55.750;48.746;2023-12-20T04:57:22;3.47;;;2.30;;
78985;SDS011;68384;55.750;48.746;2023-12-20T04:58:24;4.32;;;2.45;;
78985;SDS011;68384;55.750;48.746;2023-12-20T04:59:27;4.93;;;2.85;;
78985;SDS011;68384;55.750;48.746;2023-12-20T05:00:29;6.78;;;2.63;;
78985;SDS011;68384;55.750;48.746;2023-12-20T05:01:32;6.85;;;2.40;;
78985;SDS011;68384;55.750;48.746;2023-12-20T05:02:37;4.90;;;2.42;;
78985;SDS011;68384;55.750;48.746;2023-12-20T05:03:40;5.22;;;3.05;;
78985;SDS011;68384;55.750;48.746;2023-12-20T05:04:42;4.60;;;2.70;;
78985;SDS011;68384;55.750;48.746;2023-12-20T05:05:44;4.28;;;2.25;;
78985;SDS011;68384;55.750;48.746;2023-12-20T05:06:46;4.25;;;2.20;;
78985;SDS011;68384;55.750;48.746;2023-12-20T05:07:49;4.10;;;2.00;;
78985;SDS011;68384;55.750;48.746;2023-12-20T05:08:52;3.40;;;2.20;;
78985;SDS011;68384;55.750;48.746;2023-12-20T05:09:54;4.80;;;2.10;;
78985;SDS011;68384;55.750;48.746;2023-12-20T05:10:56;4.03;;;1.90;;
78985;SDS011;68384;55.750;48.746;2023-12-20T05:11:58;3.47;;;2.10;;
78985;SDS011;68384;55.750;48.746;2023-12-20T05:13:00;4.78;;;2.22;;
78985;SDS011;68384;55.750;48.746;2023-12-20T05:14:03;3.92;;;2.40;;
78985;SDS011;68384;55.750;48.746;2023-12-20T05:15:05;3.90;;;2.05;;
78985;SDS011;68384;55.750;48.746;2023-12-20T05:16:08;2.97;;;1.73;;
78985;SDS011;68384;55.750;48.746;2023-12-20T05:17:11;3.45;;;2.17;;
78985;SDS011;68384;55.750;48.746;2023-12-20T05:18:13;25.15;;;5.75;;
78985;SDS011;68384;55.750;48.746;2023-12-20T05:19:16;4.70;;;2.42;;
78985;SDS011;68384;55.750;48.746;2023-12-20T05:20:18;4.40;;;2.75;;
78985;SDS011;68384;55.750;48.746;2023-12-20T05:21:20;6.65;;;2.83;;
78985;SDS011;68384;55.750;48.746;2023-12-20T05:22:22;4.07;;;2.17;;
78985;SDS011;68384;55.750;48.746;2023-12-20T05:23:25;4.10;;;2.50;;
78985;SDS011;68384;55.750;48.746;2023-12-20T05:24:27;4.57;;;2.50;;
78985;SDS011;68384;55.750;48.746;2023-12-20T05:25:29;3.88;;;2.35;;
78985;SDS011;68384;55.750;48.746;2023-12-20T05:26:32;6.40;;;2.83;;
78985;SDS011;68384;55.750;48.746;2023-12-20T05:27:34;5.55;;;2.70;;
78985;SDS011;68384;55.750;48.746;2023-12-20T05:28:36;5.07;;;3.08;;
78985;SDS011;68384;55.750;48.746;2023-12-20T05:29:38;6.30;;;3.13;;
78985;SDS011;68384;55.750;48.746;2023-12-20T05:30:40;6.53;;;4.20;;
78985;SDS011;68384;55.750;48.746;2023-12-20T05:31:43;5.10;;;2.15;;
78985;SDS011;68384;55.750;48.746;2023-12-20T05:32:45;6.30;;;3.20;;
78985;SDS011;68384;55.750;48.746;2023-12-20T05:33:48;5.03;;;2.85;;
78985;SDS011;68384;55.750;48.746;2023-12-20T05:34:50;5.63;;;3.38;;
78985;SDS011;68384;55.750;48.746;2023-12-20T05:35:52;8.88;;;2.88;;
78985;SDS011;68384;55.750;48.746;2023-12-20T05:36:54;5.78;;;2.88;;
78985;SDS011;68384;55.750;48.746;2023-12-20T05:37:57;7.13;;;3.22;;
78985;SDS011;68384;55.750;48.746;2023-12-20T05:38:59;4.03;;;2.72;;
78985;SDS011;68384;55.750;48.746;2023-12-20T05:40:01;5.85;;;3.17;;
78985;SDS011;68384;55.750;48.746;2023-12-20T05:41:04;5.32;;;3.10;;
78985;SDS011;68384;55.750;48.746;2023-12-20T05:42:07;4.25;;;2.38;;
78985;SDS011;68384;55.750;48.746;2023-12-20T05:43:09;9.30;;;2.90;;
78985;SDS011;68384;55.750;48.746;2023-12-20T05:44:11;9.18;;;3.55;;
78985;SDS011;68384;55.750;48.746;2023-12-20T05:45:14;4.32;;;2.47;;
78985;SDS011;68384;55.750;48.746;2023-12-20T05:46:17;5.20;;;3.00;;
78985;SDS011;68384;55.750;48.746;2023-12-20T05:47:19;5.72;;;2.95;;
78985;SDS011;68384;55.750;48.746;2023-12-20T05:48:21;5.65;;;2.78;;
78985;SDS011;68384;55.750;48.746;2023-12-20T05:49:24;5.00;;;2.40;;
78985;SDS011;68384;55.750;48.746;2023-12-20T05:50:26;5.18;;;2.88;;
78985;SDS011;68384;55.750;48.746;2023-12-20T05:51:29;5.47;;;3.53;;
78985;SDS011;68384;55.750;48.746;2023-12-20T05:52:31;4.05;;;2.58;;
78985;SDS011;68384;55.750;48.746;2023-12-20T05:53:33;4.00;;;2.22;;
78985;SDS011;68384;55.750;48.746;2023-12-20T05:54:35;4.05;;;2.92;;
78985;SDS011;68384;55.750;48.746;2023-12-20T05:55:38;5.00;;;2.75;;
78985;SDS011;68384;55.750;48.746;2023-12-20T05:56:40;4.85;;;3.00;;
78985;SDS011;68384;55.750;48.746;2023-12-20T05:57:43;6.05;;;2.63;;
78985;SDS011;68384;55.750;48.746;2023-12-20T05:58:45;4.72;;;2.70;;
78985;SDS011;68384;55.750;48.746;2023-12-20T05:59:47;4.45;;;2.75;;
78985;SDS011;68384;55.750;48.746;2023-12-20T06:00:50;4.10;;;2.70;;
78985;SDS011;68384;55.750;48.746;2023-12-20T06:01:52;4.35;;;2.60;;
78985;SDS011;68384;55.750;48.746;2023-12-20T06:02:54;4.20;;;2.63;;
78985;SDS011;68384;55.750;48.746;2023-12-20T06:03:57;4.65;;;2.75;;
78985;SDS011;68384;55.750;48.746;2023-12-20T06:04:59;4.28;;;2.65;;
78985;SDS011;68384;55.750;48.746;2023-12-20T06:06:07;5.63;;;2.97;;
78985;SDS011;68384;55.750;48.746;2023-12-20T06:07:17;5.88;;;3.28;;
78985;SDS011;68384;55.750;48.746;2023-12-20T06:08:20;5.00;;;2.47;;
78985;SDS011;68384;55.750;48.746;2023-12-20T06:09:22;4.57;;;2.72;;
78985;SDS011;68384;55.750;48.746;2023-12-20T06:10:24;5.00;;;2.85;;
78985;SDS011;68384;55.750;48.746;2023-12-20T06:11:27;4.50;;;2.55;;